sensor_id;sensor_type;location;lat;lon;timestamp;temperature;humidity
36752;DHT22;22718;49.494;7.036;2023-05-14T00:01:54;10.60;99.90
36752;DHT22;22718;49.494;7.036;2023-05-14T00:04:24;10.50;99.90
36752;DHT22;22718;49.494;7.036;2023-05-14T00:06:53;10.50;99.90
36752;DHT22;22718;49.494;7.036;2023-05-14T00:09:23;10.50;99.90
36752;DHT22;22718;49.494;7.036;2023-05-14T00:11:48;10.40;99.90
36752;DHT22;22718;49.494;7.036;2023-05-14T00:14:14;10.30;99.90
36752;DHT22;22718;49.494;7.036;2023-05-14T00:16:39;10.30;99.90
36752;DHT22;22718;49.494;7.036;2023-05-14T00:19:05;10.20;99.90
36752;DHT22;22718;49.494;7.036;2023-05-14T00:21:30;10.30;99.90
36752;DHT22;22718;49.494;7.036;2023-05-14T00:23:56;10.40;99.90
36752;DHT22;22718;49.494;7.036;2023-05-14T00:26:22;10.40;99.90
36752;DHT22;22718;49.494;7.036;2023-05-14T00:28:47;10.50;99.90
36752;DHT22;22718;49.494;7.036;2023-05-14T00:31:13;10.50;99.90
36752;DHT22;22718;49.494;7.036;2023-05-14T00:33:39;10.50;99.90
36752;DHT22;22718;49.494;7.036;2023-05-14T00:36:04;10.50;99.90
36752;DHT22;22718;49.494;7.036;2023-05-14T00:38:30;10.60;99.90
36752;DHT22;22718;49.494;7.036;2023-05-14T00:40:56;8.50;99.90
36752;DHT22;22718;49.494;7.036;2023-05-14T00:43:22;10.40;99.90
36752;DHT22;22718;49.494;7.036;2023-05-14T00:45:51;10.40;99.90
36752;DHT22;22718;49.494;7.036;2023-05-14T00:48:20;10.40;99.90
36752;DHT22;22718;49.494;7.036;2023-05-14T00:50:46;10.40;99.90
36752;DHT22;22718;49.494;7.036;2023-05-14T00:53:12;10.30;99.90
36752;DHT22;22718;49.494;7.036;2023-05-14T00:55:37;10.30;99.90
36752;DHT22;22718;49.494;7.036;2023-05-14T00:58:09;10.30;99.90
36752;DHT22;22718;49.494;7.036;2023-05-14T01:00:35;10.20;99.90
36752;DHT22;22718;49.494;7.036;2023-05-14T01:03:01;10.20;99.90
36752;DHT22;22718;49.494;7.036;2023-05-14T01:10:50;10.10;99.90
36752;DHT22;22718;49.494;7.036;2023-05-14T01:13:26;10.10;99.90
36752;DHT22;22718;49.494;7.036;2023-05-14T01:15:55;10.00;99.90
36752;DHT22;22718;49.494;7.036;2023-05-14T01:18:21;10.00;99.90
36752;DHT22;22718;49.494;7.036;2023-05-14T01:20:51;10.00;99.90
36752;DHT22;22718;49.494;7.036;2023-05-14T01:25:45;10.10;99.90
36752;DHT22;22718;49.494;7.036;2023-05-14T01:28:22;10.10;99.90
36752;DHT22;22718;49.494;7.036;2023-05-14T01:31:06;10.20;99.90
36752;DHT22;22718;49.494;7.036;2023-05-14T01:33:32;10.20;99.90
36752;DHT22;22718;49.494;7.036;2023-05-14T01:35:58;10.20;99.90
36752;DHT22;22718;49.494;7.036;2023-05-14T01:38:24;10.20;99.90
36752;DHT22;22718;49.494;7.036;2023-05-14T01:40:58;10.20;99.90
36752;DHT22;22718;49.494;7.036;2023-05-14T01:45:50;10.20;99.90
36752;DHT22;22718;49.494;7.036;2023-05-14T01:48:15;10.20;99.90
36752;DHT22;22718;49.494;7.036;2023-05-14T01:50:41;10.20;99.90
36752;DHT22;22718;49.494;7.036;2023-05-14T01:53:06;10.20;99.90
36752;DHT22;22718;49.494;7.036;2023-05-14T01:55:32;10.10;99.90
36752;DHT22;22718;49.494;7.036;2023-05-14T02:00:24;10.10;99.90
36752;DHT22;22718;49.494;7.036;2023-05-14T02:02:50;10.00;99.90
36752;DHT22;22718;49.494;7.036;2023-05-14T02:05:15;10.00;99.90
36752;DHT22;22718;49.494;7.036;2023-05-14T02:07:41;10.10;99.90
36752;DHT22;22718;49.494;7.036;2023-05-14T02:10:09;10.00;99.90
36752;DHT22;22718;49.494;7.036;2023-05-14T02:12:37;10.40;99.90
36752;DHT22;22718;49.494;7.036;2023-05-14T02:15:03;10.10;99.90
36752;DHT22;22718;49.494;7.036;2023-05-14T02:17:28;10.10;99.90
36752;DHT22;22718;49.494;7.036;2023-05-14T02:19:54;10.10;99.90
36752;DHT22;22718;49.494;7.036;2023-05-14T02:22:20;10.10;99.90
36752;DHT22;22718;49.494;7.036;2023-05-14T02:24:45;10.10;99.90
36752;DHT22;22718;49.494;7.036;2023-05-14T02:27:11;10.00;99.90
36752;DHT22;22718;49.494;7.036;2023-05-14T02:29:37;10.00;99.90
36752;DHT22;22718;49.494;7.036;2023-05-14T02:32:03;9.90;99.90
36752;DHT22;22718;49.494;7.036;2023-05-14T02:34:32;9.90;99.90
36752;DHT22;22718;49.494;7.036;2023-05-14T02:36:58;9.90;99.90
36752;DHT22;22718;49.494;7.036;2023-05-14T02:39:24;9.90;99.90
36752;DHT22;22718;49.494;7.036;2023-05-14T02:41:49;9.90;99.90
36752;DHT22;22718;49.494;7.036;2023-05-14T02:44:15;9.90;99.90
36752;DHT22;22718;49.494;7.036;2023-05-14T02:46:41;9.90;99.90
36752;DHT22;22718;49.494;7.036;2023-05-14T02:49:07;10.00;99.90
36752;DHT22;22718;49.494;7.036;2023-05-14T02:51:32;10.00;99.90
36752;DHT22;22718;49.494;7.036;2023-05-14T02:53:58;10.00;99.90
36752;DHT22;22718;49.494;7.036;2023-05-14T02:56:27;10.10;99.90
36752;DHT22;22718;49.494;7.036;2023-05-14T02:58:52;10.70;99.90
36752;DHT22;22718;49.494;7.036;2023-05-14T03:01:18;10.00;99.90
36752;DHT22;22718;49.494;7.036;2023-05-14T03:03:45;10.00;99.90
36752;DHT22;22718;49.494;7.036;2023-05-14T03:06:13;10.00;99.90
36752;DHT22;22718;49.494;7.036;2023-05-14T03:08:39;9.90;99.90
36752;DHT22;22718;49.494;7.036;2023-05-14T03:11:04;9.90;99.90
36752;DHT22;22718;49.494;7.036;2023-05-14T03:13:31;9.80;99.90
36752;DHT22;22718;49.494;7.036;2023-05-14T03:15:56;9.80;99.90
36752;DHT22;22718;49.494;7.036;2023-05-14T03:18:22;9.80;99.90
36752;DHT22;22718;49.494;7.036;2023-05-14T03:20:47;9.80;99.90
36752;DHT22;22718;49.494;7.036;2023-05-14T03:23:13;9.90;99.90
36752;DHT22;22718;49.494;7.036;2023-05-14T03:30:41;9.90;99.90
36752;DHT22;22718;49.494;7.036;2023-05-14T03:33:06;9.80;99.90
36752;DHT22;22718;49.494;7.036;2023-05-14T03:35:32;9.90;99.90
36752;DHT22;22718;49.494;7.036;2023-05-14T03:37:58;9.90;99.90
36752;DHT22;22718;49.494;7.036;2023-05-14T03:40:24;9.90;99.90
36752;DHT22;22718;49.494;7.036;2023-05-14T03:42:49;9.90;99.90
36752;DHT22;22718;49.494;7.036;2023-05-14T03:45:15;10.00;99.90
36752;DHT22;22718;49.494;7.036;2023-05-14T03:47:40;10.40;99.90
36752;DHT22;22718;49.494;7.036;2023-05-14T03:50:06;10.00;99.90
36752;DHT22;22718;49.494;7.036;2023-05-14T03:52:35;9.90;99.90
36752;DHT22;22718;49.494;7.036;2023-05-14T03:55:03;9.10;99.90
36752;DHT22;22718;49.494;7.036;2023-05-14T03:57:29;14.90;99.90
36752;DHT22;22718;49.494;7.036;2023-05-14T03:59:55;9.90;99.90
36752;DHT22;22718;49.494;7.036;2023-05-14T04:02:21;10.10;99.90
36752;DHT22;22718;49.494;7.036;2023-05-14T04:04:47;10.10;99.90
36752;DHT22;22718;49.494;7.036;2023-05-14T04:07:12;10.20;99.90
36752;DHT22;22718;49.494;7.036;2023-05-14T04:09:40;10.40;99.90
36752;DHT22;22718;49.494;7.036;2023-05-14T04:12:06;10.40;99.90
36752;DHT22;22718;49.494;7.036;2023-05-14T04:14:31;11.00;99.90
36752;DHT22;22718;49.494;7.036;2023-05-14T04:16:57;11.20;99.90
36752;DHT22;22718;49.494;7.036;2023-05-14T04:19:22;11.10;99.90
36752;DHT22;22718;49.494;7.036;2023-05-14T04:21:50;11.40;99.90
36752;DHT22;22718;49.494;7.036;2023-05-14T04:24:16;11.70;99.90
36752;DHT22;22718;49.494;7.036;2023-05-14T04:26:41;12.00;99.90
36752;DHT22;22718;49.494;7.036;2023-05-14T04:29:08;12.30;99.90
36752;DHT22;22718;49.494;7.036;2023-05-14T04:31:34;12.50;99.90
36752;DHT22;22718;49.494;7.036;2023-05-14T04:34:00;12.70;99.90
36752;DHT22;22718;49.494;7.036;2023-05-14T04:36:26;12.80;99.90
36752;DHT22;22718;49.494;7.036;2023-05-14T04:38:51;12.90;99.90
36752;DHT22;22718;49.494;7.036;2023-05-14T04:41:17;13.10;99.90
36752;DHT22;22718;49.494;7.036;2023-05-14T04:43:42;13.40;99.90
36752;DHT22;22718;49.494;7.036;2023-05-14T04:46:08;13.80;99.90
36752;DHT22;22718;49.494;7.036;2023-05-14T04:48:34;13.90;99.90
36752;DHT22;22718;49.494;7.036;2023-05-14T04:50:59;14.00;99.90
36752;DHT22;22718;49.494;7.036;2023-05-14T04:55:51;14.10;99.90
36752;DHT22;22718;49.494;7.036;2023-05-14T04:58:16;14.20;99.90
36752;DHT22;22718;49.494;7.036;2023-05-14T05:00:43;14.20;99.90
36752;DHT22;22718;49.494;7.036;2023-05-14T05:03:08;14.20;99.90
36752;DHT22;22718;49.494;7.036;2023-05-14T05:05:34;14.30;99.90
36752;DHT22;22718;49.494;7.036;2023-05-14T05:10:25;14.50;99.90
36752;DHT22;22718;49.494;7.036;2023-05-14T05:12:51;14.60;99.90
36752;DHT22;22718;49.494;7.036;2023-05-14T05:15:17;14.80;99.90
36752;DHT22;22718;49.494;7.036;2023-05-14T05:17:42;14.80;99.90
36752;DHT22;22718;49.494;7.036;2023-05-14T05:20:10;14.90;99.90
36752;DHT22;22718;49.494;7.036;2023-05-14T05:22:36;14.70;99.90
36752;DHT22;22718;49.494;7.036;2023-05-14T05:25:02;14.70;99.90
36752;DHT22;22718;49.494;7.036;2023-05-14T05:27:30;14.60;99.90
36752;DHT22;22718;49.494;7.036;2023-05-14T05:30:00;14.60;99.90
36752;DHT22;22718;49.494;7.036;2023-05-14T05:32:26;14.50;99.90
36752;DHT22;22718;49.494;7.036;2023-05-14T05:34:51;14.50;99.90
36752;DHT22;22718;49.494;7.036;2023-05-14T05:37:17;14.60;99.90
36752;DHT22;22718;49.494;7.036;2023-05-14T05:39:43;14.60;99.90
36752;DHT22;22718;49.494;7.036;2023-05-14T05:42:08;14.50;99.90
36752;DHT22;22718;49.494;7.036;2023-05-14T05:44:37;14.60;99.90
36752;DHT22;22718;49.494;7.036;2023-05-14T05:47:03;14.60;99.90
36752;DHT22;22718;49.494;7.036;2023-05-14T05:49:28;14.60;99.90
36752;DHT22;22718;49.494;7.036;2023-05-14T05:51:57;14.60;99.90
36752;DHT22;22718;49.494;7.036;2023-05-14T05:54:23;14.60;99.90
36752;DHT22;22718;49.494;7.036;2023-05-14T05:56:51;14.60;99.90
36752;DHT22;22718;49.494;7.036;2023-05-14T05:59:23;14.60;99.90
36752;DHT22;22718;49.494;7.036;2023-05-14T06:01:48;14.80;99.90
36752;DHT22;22718;49.494;7.036;2023-05-14T06:04:15;14.80;99.90
36752;DHT22;22718;49.494;7.036;2023-05-14T06:06:40;14.80;99.90
36752;DHT22;22718;49.494;7.036;2023-05-14T06:09:06;14.80;99.90
36752;DHT22;22718;49.494;7.036;2023-05-14T06:11:36;15.00;99.90
36752;DHT22;22718;49.494;7.036;2023-05-14T06:14:01;15.20;99.90
36752;DHT22;22718;49.494;7.036;2023-05-14T06:16:27;15.20;99.90
36752;DHT22;22718;49.494;7.036;2023-05-14T06:18:54;15.20;99.90
36752;DHT22;22718;49.494;7.036;2023-05-14T06:21:20;15.30;99.90
36752;DHT22;22718;49.494;7.036;2023-05-14T06:23:46;15.80;99.90
36752;DHT22;22718;49.494;7.036;2023-05-14T06:26:11;15.90;99.90
36752;DHT22;22718;49.494;7.036;2023-05-14T06:28:37;15.90;99.90
36752;DHT22;22718;49.494;7.036;2023-05-14T06:31:03;15.90;99.90
36752;DHT22;22718;49.494;7.036;2023-05-14T06:33:29;16.10;99.90
36752;DHT22;22718;49.494;7.036;2023-05-14T06:36:04;16.10;99.90
36752;DHT22;22718;49.494;7.036;2023-05-14T06:38:30;16.40;99.90
36752;DHT22;22718;49.494;7.036;2023-05-14T06:40:56;16.50;99.90
36752;DHT22;22718;49.494;7.036;2023-05-14T06:43:22;16.40;99.90
36752;DHT22;22718;49.494;7.036;2023-05-14T06:45:47;16.50;99.90
36752;DHT22;22718;49.494;7.036;2023-05-14T06:48:20;16.60;99.90
36752;DHT22;22718;49.494;7.036;2023-05-14T06:50:46;16.60;99.90
36752;DHT22;22718;49.494;7.036;2023-05-14T06:53:14;16.90;99.90
36752;DHT22;22718;49.494;7.036;2023-05-14T06:55:40;16.90;99.90
36752;DHT22;22718;49.494;7.036;2023-05-14T06:58:06;16.90;99.90
36752;DHT22;22718;49.494;7.036;2023-05-14T07:00:32;17.10;99.90
36752;DHT22;22718;49.494;7.036;2023-05-14T07:02:57;17.30;99.90
36752;DHT22;22718;49.494;7.036;2023-05-14T07:05:23;17.60;99.90
36752;DHT22;22718;49.494;7.036;2023-05-14T07:07:51;17.50;99.90
36752;DHT22;22718;49.494;7.036;2023-05-14T07:10:17;17.50;99.90
36752;DHT22;22718;49.494;7.036;2023-05-14T07:12:42;17.50;99.90
36752;DHT22;22718;49.494;7.036;2023-05-14T07:15:08;17.70;99.90
36752;DHT22;22718;49.494;7.036;2023-05-14T07:17:34;17.70;99.90
36752;DHT22;22718;49.494;7.036;2023-05-14T07:20:00;18.10;99.90
36752;DHT22;22718;49.494;7.036;2023-05-14T07:22:25;18.00;99.90
36752;DHT22;22718;49.494;7.036;2023-05-14T07:24:53;18.00;99.90
36752;DHT22;22718;49.494;7.036;2023-05-14T07:27:19;18.00;99.90
36752;DHT22;22718;49.494;7.036;2023-05-14T07:29:48;17.90;99.90
36752;DHT22;22718;49.494;7.036;2023-05-14T07:32:13;18.20;99.90
36752;DHT22;22718;49.494;7.036;2023-05-14T07:34:39;18.30;99.90
36752;DHT22;22718;49.494;7.036;2023-05-14T07:37:04;18.40;99.90
36752;DHT22;22718;49.494;7.036;2023-05-14T07:39:39;18.60;99.90
36752;DHT22;22718;49.494;7.036;2023-05-14T07:42:06;18.90;99.90
36752;DHT22;22718;49.494;7.036;2023-05-14T07:44:31;19.00;99.90
36752;DHT22;22718;49.494;7.036;2023-05-14T07:49:23;18.60;99.90
36752;DHT22;22718;49.494;7.036;2023-05-14T07:51:48;18.60;99.90
36752;DHT22;22718;49.494;7.036;2023-05-14T07:54:15;18.60;99.90
36752;DHT22;22718;49.494;7.036;2023-05-14T07:56:40;18.50;99.90
36752;DHT22;22718;49.494;7.036;2023-05-14T07:59:09;18.50;99.90
36752;DHT22;22718;49.494;7.036;2023-05-14T08:01:37;17.90;99.90
36752;DHT22;22718;49.494;7.036;2023-05-14T08:04:06;18.20;99.90
36752;DHT22;22718;49.494;7.036;2023-05-14T08:06:32;18.30;99.90
36752;DHT22;22718;49.494;7.036;2023-05-14T08:08:58;18.10;99.90
36752;DHT22;22718;49.494;7.036;2023-05-14T08:11:25;17.50;99.90
36752;DHT22;22718;49.494;7.036;2023-05-14T08:13:54;17.30;99.90
36752;DHT22;22718;49.494;7.036;2023-05-14T08:16:23;17.80;99.90
36752;DHT22;22718;49.494;7.036;2023-05-14T08:18:50;17.80;99.90
36752;DHT22;22718;49.494;7.036;2023-05-14T08:21:16;18.30;99.90
36752;DHT22;22718;49.494;7.036;2023-05-14T08:23:42;18.30;99.90
36752;DHT22;22718;49.494;7.036;2023-05-14T08:26:10;18.90;99.90
36752;DHT22;22718;49.494;7.036;2023-05-14T08:28:35;19.70;99.90
36752;DHT22;22718;49.494;7.036;2023-05-14T08:31:01;19.60;99.90
36752;DHT22;22718;49.494;7.036;2023-05-14T08:33:26;19.20;99.90
36752;DHT22;22718;49.494;7.036;2023-05-14T08:35:52;19.10;99.90
36752;DHT22;22718;49.494;7.036;2023-05-14T08:38:18;18.90;99.90
36752;DHT22;22718;49.494;7.036;2023-05-14T08:40:55;18.90;99.90
36752;DHT22;22718;49.494;7.036;2023-05-14T08:43:22;19.00;99.90
36752;DHT22;22718;49.494;7.036;2023-05-14T08:45:51;19.20;99.90
36752;DHT22;22718;49.494;7.036;2023-05-14T08:48:18;19.50;99.90
36752;DHT22;22718;49.494;7.036;2023-05-14T08:50:45;19.70;99.90
36752;DHT22;22718;49.494;7.036;2023-05-14T08:53:12;19.10;99.90
36752;DHT22;22718;49.494;7.036;2023-05-14T08:55:40;18.50;99.90
36752;DHT22;22718;49.494;7.036;2023-05-14T08:58:09;18.20;99.90
36752;DHT22;22718;49.494;7.036;2023-05-14T09:00:36;18.30;99.90
36752;DHT22;22718;49.494;7.036;2023-05-14T09:03:04;17.70;99.90
36752;DHT22;22718;49.494;7.036;2023-05-14T09:05:31;18.00;99.90
36752;DHT22;22718;49.494;7.036;2023-05-14T09:07:57;18.30;99.90
36752;DHT22;22718;49.494;7.036;2023-05-14T09:10:23;18.60;99.90
36752;DHT22;22718;49.494;7.036;2023-05-14T09:12:49;19.30;99.90
36752;DHT22;22718;49.494;7.036;2023-05-14T09:15:17;20.30;99.90
36752;DHT22;22718;49.494;7.036;2023-05-14T09:17:45;21.10;99.90
36752;DHT22;22718;49.494;7.036;2023-05-14T09:20:15;21.30;99.90
36752;DHT22;22718;49.494;7.036;2023-05-14T09:22:41;20.90;99.90
36752;DHT22;22718;49.494;7.036;2023-05-14T09:25:16;21.50;99.90
36752;DHT22;22718;49.494;7.036;2023-05-14T09:27:42;21.70;99.90
36752;DHT22;22718;49.494;7.036;2023-05-14T09:30:11;21.60;99.90
36752;DHT22;22718;49.494;7.036;2023-05-14T09:32:40;20.90;99.90
36752;DHT22;22718;49.494;7.036;2023-05-14T09:35:10;21.10;99.90
36752;DHT22;22718;49.494;7.036;2023-05-14T09:37:36;21.30;99.90
36752;DHT22;22718;49.494;7.036;2023-05-14T09:40:05;21.80;99.90
36752;DHT22;22718;49.494;7.036;2023-05-14T09:42:31;22.70;99.90
36752;DHT22;22718;49.494;7.036;2023-05-14T09:44:59;22.90;99.90
36752;DHT22;22718;49.494;7.036;2023-05-14T09:47:24;22.70;99.90
36752;DHT22;22718;49.494;7.036;2023-05-14T09:49:51;22.60;99.90
36752;DHT22;22718;49.494;7.036;2023-05-14T09:52:19;22.80;99.90
36752;DHT22;22718;49.494;7.036;2023-05-14T09:54:45;23.80;99.90
36752;DHT22;22718;49.494;7.036;2023-05-14T09:57:11;22.80;99.90
36752;DHT22;22718;49.494;7.036;2023-05-14T09:59:36;22.20;99.90
36752;DHT22;22718;49.494;7.036;2023-05-14T10:02:02;21.50;99.90
36752;DHT22;22718;49.494;7.036;2023-05-14T10:04:29;20.80;99.90
36752;DHT22;22718;49.494;7.036;2023-05-14T10:06:54;20.10;99.90
36752;DHT22;22718;49.494;7.036;2023-05-14T10:09:20;20.00;99.90
36752;DHT22;22718;49.494;7.036;2023-05-14T10:11:51;19.50;99.90
36752;DHT22;22718;49.494;7.036;2023-05-14T10:14:19;19.40;99.90
36752;DHT22;22718;49.494;7.036;2023-05-14T10:16:51;19.60;99.90
36752;DHT22;22718;49.494;7.036;2023-05-14T10:19:19;20.00;99.90
36752;DHT22;22718;49.494;7.036;2023-05-14T10:21:54;20.50;99.90
36752;DHT22;22718;49.494;7.036;2023-05-14T10:24:20;20.70;99.90
36752;DHT22;22718;49.494;7.036;2023-05-14T10:26:49;21.40;99.90
36752;DHT22;22718;49.494;7.036;2023-05-14T10:29:14;21.70;99.90
36752;DHT22;22718;49.494;7.036;2023-05-14T10:31:48;21.80;99.90
36752;DHT22;22718;49.494;7.036;2023-05-14T10:34:30;21.80;99.20
36752;DHT22;22718;49.494;7.036;2023-05-14T10:37:00;21.70;99.90
36752;DHT22;22718;49.494;7.036;2023-05-14T10:42:14;22.80;99.90
36752;DHT22;22718;49.494;7.036;2023-05-14T10:44:51;22.80;99.50
36752;DHT22;22718;49.494;7.036;2023-05-14T10:47:17;22.70;99.20
36752;DHT22;22718;49.494;7.036;2023-05-14T10:49:43;22.60;99.10
36752;DHT22;22718;49.494;7.036;2023-05-14T10:52:10;22.90;99.90
36752;DHT22;22718;49.494;7.036;2023-05-14T10:54:36;22.90;98.20
36752;DHT22;22718;49.494;7.036;2023-05-14T10:57:02;23.10;98.80
36752;DHT22;22718;49.494;7.036;2023-05-14T10:59:27;23.00;99.90
36752;DHT22;22718;49.494;7.036;2023-05-14T11:01:53;22.80;99.10
36752;DHT22;22718;49.494;7.036;2023-05-14T11:04:26;23.10;99.10
36752;DHT22;22718;49.494;7.036;2023-05-14T11:06:52;23.40;97.20
36752;DHT22;22718;49.494;7.036;2023-05-14T11:09:17;23.40;96.10
36752;DHT22;22718;49.494;7.036;2023-05-14T11:11:50;23.40;97.30
36752;DHT22;22718;49.494;7.036;2023-05-14T11:14:21;22.50;96.00
36752;DHT22;22718;49.494;7.036;2023-05-14T11:16:47;22.70;98.50
36752;DHT22;22718;49.494;7.036;2023-05-14T11:19:13;20.90;96.60
36752;DHT22;22718;49.494;7.036;2023-05-14T11:21:38;21.10;98.80
36752;DHT22;22718;49.494;7.036;2023-05-14T11:24:04;21.10;98.40
36752;DHT22;22718;49.494;7.036;2023-05-14T11:26:31;21.60;99.30
36752;DHT22;22718;49.494;7.036;2023-05-14T11:28:57;21.20;98.50
36752;DHT22;22718;49.494;7.036;2023-05-14T11:31:22;22.10;98.50
36752;DHT22;22718;49.494;7.036;2023-05-14T11:33:50;22.20;98.50
36752;DHT22;22718;49.494;7.036;2023-05-14T11:36:19;21.80;97.60
36752;DHT22;22718;49.494;7.036;2023-05-14T11:38:45;21.80;99.40
36752;DHT22;22718;49.494;7.036;2023-05-14T11:41:15;21.40;99.90
36752;DHT22;22718;49.494;7.036;2023-05-14T11:43:41;20.90;99.90
36752;DHT22;22718;49.494;7.036;2023-05-14T11:46:07;20.50;99.90
36752;DHT22;22718;49.494;7.036;2023-05-14T11:48:32;20.40;99.80
36752;DHT22;22718;49.494;7.036;2023-05-14T11:50:58;20.30;99.30
36752;DHT22;22718;49.494;7.036;2023-05-14T11:53:24;20.20;99.70
36752;DHT22;22718;49.494;7.036;2023-05-14T11:55:50;20.00;99.90
36752;DHT22;22718;49.494;7.036;2023-05-14T11:58:16;19.90;99.90
36752;DHT22;22718;49.494;7.036;2023-05-14T12:00:43;19.80;99.90
36752;DHT22;22718;49.494;7.036;2023-05-14T12:03:09;19.70;99.90
36752;DHT22;22718;49.494;7.036;2023-05-14T12:05:36;20.40;99.90
36752;DHT22;22718;49.494;7.036;2023-05-14T12:08:01;20.20;99.90
36752;DHT22;22718;49.494;7.036;2023-05-14T12:10:27;20.20;99.90
36752;DHT22;22718;49.494;7.036;2023-05-14T12:12:55;19.80;99.90
36752;DHT22;22718;49.494;7.036;2023-05-14T12:15:21;19.80;99.90
36752;DHT22;22718;49.494;7.036;2023-05-14T12:17:50;19.70;99.90
36752;DHT22;22718;49.494;7.036;2023-05-14T12:20:16;19.40;99.90
36752;DHT22;22718;49.494;7.036;2023-05-14T12:22:42;19.30;99.90
36752;DHT22;22718;49.494;7.036;2023-05-14T12:25:11;19.10;99.90
36752;DHT22;22718;49.494;7.036;2023-05-14T12:27:43;19.10;99.90
36752;DHT22;22718;49.494;7.036;2023-05-14T12:30:10;19.00;99.90
36752;DHT22;22718;49.494;7.036;2023-05-14T12:32:36;18.40;99.90
36752;DHT22;22718;49.494;7.036;2023-05-14T12:35:03;18.20;99.90
36752;DHT22;22718;49.494;7.036;2023-05-14T12:37:32;18.30;99.90
36752;DHT22;22718;49.494;7.036;2023-05-14T12:39:58;18.90;99.90
36752;DHT22;22718;49.494;7.036;2023-05-14T12:42:23;18.90;99.90
36752;DHT22;22718;49.494;7.036;2023-05-14T12:44:49;19.30;99.90
36752;DHT22;22718;49.494;7.036;2023-05-14T12:47:14;20.00;99.90
36752;DHT22;22718;49.494;7.036;2023-05-14T12:49:41;20.70;99.90
36752;DHT22;22718;49.494;7.036;2023-05-14T12:52:06;21.30;99.90
36752;DHT22;22718;49.494;7.036;2023-05-14T12:54:32;21.80;99.90
36752;DHT22;22718;49.494;7.036;2023-05-14T12:56:58;22.00;99.90
36752;DHT22;22718;49.494;7.036;2023-05-14T12:59:23;22.30;99.90
36752;DHT22;22718;49.494;7.036;2023-05-14T13:01:49;22.10;99.90
36752;DHT22;22718;49.494;7.036;2023-05-14T13:04:14;21.80;99.90
36752;DHT22;22718;49.494;7.036;2023-05-14T13:06:40;21.10;99.90
36752;DHT22;22718;49.494;7.036;2023-05-14T13:09:06;21.90;99.90
36752;DHT22;22718;49.494;7.036;2023-05-14T13:11:31;22.00;99.90
36752;DHT22;22718;49.494;7.036;2023-05-14T13:13:58;23.30;99.90
36752;DHT22;22718;49.494;7.036;2023-05-14T13:16:26;23.20;99.90
36752;DHT22;22718;49.494;7.036;2023-05-14T13:18:52;22.20;98.10
36752;DHT22;22718;49.494;7.036;2023-05-14T13:21:17;21.40;98.40
36752;DHT22;22718;49.494;7.036;2023-05-14T13:23:43;21.10;99.20
36752;DHT22;22718;49.494;7.036;2023-05-14T13:26:08;20.60;99.60
36752;DHT22;22718;49.494;7.036;2023-05-14T13:28:34;20.90;99.70
36752;DHT22;22718;49.494;7.036;2023-05-14T13:33:32;21.20;99.70
36752;DHT22;22718;49.494;7.036;2023-05-14T13:35:57;21.30;99.90
36752;DHT22;22718;49.494;7.036;2023-05-14T13:38:23;21.60;99.40
36752;DHT22;22718;49.494;7.036;2023-05-14T13:40:48;22.20;99.00
36752;DHT22;22718;49.494;7.036;2023-05-14T13:43:14;22.40;98.70
36752;DHT22;22718;49.494;7.036;2023-05-14T13:45:41;21.90;99.30
36752;DHT22;22718;49.494;7.036;2023-05-14T13:48:06;21.40;97.30
36752;DHT22;22718;49.494;7.036;2023-05-14T13:50:33;21.20;98.10
36752;DHT22;22718;49.494;7.036;2023-05-14T13:52:58;20.70;97.00
36752;DHT22;22718;49.494;7.036;2023-05-14T13:55:24;20.70;99.70
36752;DHT22;22718;49.494;7.036;2023-05-14T13:57:49;20.50;99.50
36752;DHT22;22718;49.494;7.036;2023-05-14T14:00:15;20.40;99.50
36752;DHT22;22718;49.494;7.036;2023-05-14T14:02:41;21.10;99.90
36752;DHT22;22718;49.494;7.036;2023-05-14T14:05:09;21.10;99.80
36752;DHT22;22718;49.494;7.036;2023-05-14T14:07:35;20.70;99.30
36752;DHT22;22718;49.494;7.036;2023-05-14T14:10:00;20.30;98.40
36752;DHT22;22718;49.494;7.036;2023-05-14T14:12:26;20.30;99.40
36752;DHT22;22718;49.494;7.036;2023-05-14T14:14:52;20.00;98.80
36752;DHT22;22718;49.494;7.036;2023-05-14T14:17:18;19.90;99.90
36752;DHT22;22718;49.494;7.036;2023-05-14T14:19:43;20.10;99.90
36752;DHT22;22718;49.494;7.036;2023-05-14T14:22:09;20.60;99.90
36752;DHT22;22718;49.494;7.036;2023-05-14T14:24:36;20.80;99.20
36752;DHT22;22718;49.494;7.036;2023-05-14T14:27:02;21.20;99.90
36752;DHT22;22718;49.494;7.036;2023-05-14T14:29:27;21.30;99.60
36752;DHT22;22718;49.494;7.036;2023-05-14T14:31:55;21.40;99.50
36752;DHT22;22718;49.494;7.036;2023-05-14T14:34:21;21.10;98.50
36752;DHT22;22718;49.494;7.036;2023-05-14T14:36:46;20.60;98.20
36752;DHT22;22718;49.494;7.036;2023-05-14T14:39:12;20.70;99.70
36752;DHT22;22718;49.494;7.036;2023-05-14T14:41:37;21.20;98.40
36752;DHT22;22718;49.494;7.036;2023-05-14T14:44:03;21.60;98.90
36752;DHT22;22718;49.494;7.036;2023-05-14T14:46:29;21.60;99.10
36752;DHT22;22718;49.494;7.036;2023-05-14T14:48:55;21.50;98.40
36752;DHT22;22718;49.494;7.036;2023-05-14T14:51:20;21.70;97.40
36752;DHT22;22718;49.494;7.036;2023-05-14T14:53:46;21.60;97.50
36752;DHT22;22718;49.494;7.036;2023-05-14T14:56:12;21.70;96.90
36752;DHT22;22718;49.494;7.036;2023-05-14T14:58:37;21.40;97.10
36752;DHT22;22718;49.494;7.036;2023-05-14T15:01:03;21.30;97.80
36752;DHT22;22718;49.494;7.036;2023-05-14T15:03:28;21.00;98.60
36752;DHT22;22718;49.494;7.036;2023-05-14T15:05:54;20.00;96.10
36752;DHT22;22718;49.494;7.036;2023-05-14T15:08:23;19.90;97.20
36752;DHT22;22718;49.494;7.036;2023-05-14T15:10:48;19.80;96.40
36752;DHT22;22718;49.494;7.036;2023-05-14T15:13:14;19.80;98.20
36752;DHT22;22718;49.494;7.036;2023-05-14T15:15:39;19.90;97.00
36752;DHT22;22718;49.494;7.036;2023-05-14T15:18:05;20.10;98.20
36752;DHT22;22718;49.494;7.036;2023-05-14T15:20:30;20.20;96.80
36752;DHT22;22718;49.494;7.036;2023-05-14T15:22:56;20.40;97.50
36752;DHT22;22718;49.494;7.036;2023-05-14T15:25:22;20.60;97.00
36752;DHT22;22718;49.494;7.036;2023-05-14T15:27:48;20.80;98.00
36752;DHT22;22718;49.494;7.036;2023-05-14T15:30:14;20.70;97.10
36752;DHT22;22718;49.494;7.036;2023-05-14T15:32:40;20.60;97.10
36752;DHT22;22718;49.494;7.036;2023-05-14T15:35:05;20.60;98.70
36752;DHT22;22718;49.494;7.036;2023-05-14T15:37:35;20.20;99.40
36752;DHT22;22718;49.494;7.036;2023-05-14T15:40:01;20.10;99.90
36752;DHT22;22718;49.494;7.036;2023-05-14T15:42:27;19.70;99.90
36752;DHT22;22718;49.494;7.036;2023-05-14T15:44:53;19.20;99.90
36752;DHT22;22718;49.494;7.036;2023-05-14T15:47:18;19.00;99.90
36752;DHT22;22718;49.494;7.036;2023-05-14T15:49:44;18.70;99.90
36752;DHT22;22718;49.494;7.036;2023-05-14T15:52:10;18.50;99.90
36752;DHT22;22718;49.494;7.036;2023-05-14T15:54:35;18.60;99.90
36752;DHT22;22718;49.494;7.036;2023-05-14T15:57:01;18.50;99.90
36752;DHT22;22718;49.494;7.036;2023-05-14T15:59:26;18.40;99.90